Monticello, Virginia
Current Conditions -  °F | °C
As of 3:53 PM on Thursday 18 Dec 2014 (Local Time) from KCHO Reporting Station
Clear Clear  
Wind Chill: 39°   Ceiling: Unl
Heat Index: 42°   Visibility: 10mi
Dew Point: 22°   Wind: 5mph
Humidity: 45%   Direction: 200°SSW
Pressure: 30.06"   Gusts: NA
Location:  38.025°N, 78.4761°W
Report Text: KCHO 182053Z 20004KT 10SM CLR 06/M06 A3006 RMK AO2 SLP183 T00561056 56009
Loading
Personal Weather Stations






























Interactive Weather Map New forecast layout! Learn more

10-Day Weather Forecast

Advertisements
Track Severe Weather on mobile